sensor_id;sensor_type;location;lat;lon;timestamp;P1;durP1;ratioP1;P2;durP2;ratioP2
59093;SDS011;44880;52.814;18.270;2022-12-05T00:01:37;44.70;;;19.30;;
59093;SDS011;44880;52.814;18.270;2022-12-05T00:04:10;42.20;;;19.60;;
59093;SDS011;44880;52.814;18.270;2022-12-05T00:06:42;44.40;;;19.70;;
59093;SDS011;44880;52.814;18.270;2022-12-05T00:11:43;55.60;;;21.80;;
59093;SDS011;44880;52.814;18.270;2022-12-05T00:14:15;47.90;;;21.50;;
59093;SDS011;44880;52.814;18.270;2022-12-05T00:16:47;45.30;;;19.80;;
59093;SDS011;44880;52.814;18.270;2022-12-05T00:19:19;44.90;;;20.70;;
59093;SDS011;44880;52.814;18.270;2022-12-05T00:21:51;40.70;;;19.00;;
59093;SDS011;44880;52.814;18.270;2022-12-05T00:24:22;38.10;;;17.80;;
59093;SDS011;44880;52.814;18.270;2022-12-05T00:26:54;35.60;;;16.70;;
59093;SDS011;44880;52.814;18.270;2022-12-05T00:29:26;35.40;;;17.20;;
59093;SDS011;44880;52.814;18.270;2022-12-05T00:31:57;39.50;;;17.40;;
59093;SDS011;44880;52.814;18.270;2022-12-05T00:34:29;37.80;;;18.50;;
59093;SDS011;44880;52.814;18.270;2022-12-05T00:37:00;40.30;;;18.50;;
59093;SDS011;44880;52.814;18.270;2022-12-05T00:39:32;51.60;;;22.70;;
59093;SDS011;44880;52.814;18.270;2022-12-05T00:42:03;50.30;;;22.40;;
59093;SDS011;44880;52.814;18.270;2022-12-05T00:44:35;54.20;;;21.80;;
59093;SDS011;44880;52.814;18.270;2022-12-05T00:47:06;44.60;;;21.40;;
59093;SDS011;44880;52.814;18.270;2022-12-05T00:49:38;42.70;;;19.30;;
59093;SDS011;44880;52.814;18.270;2022-12-05T00:52:10;36.60;;;17.50;;
59093;SDS011;44880;52.814;18.270;2022-12-05T00:54:42;34.40;;;17.70;;
59093;SDS011;44880;52.814;18.270;2022-12-05T00:59:43;35.20;;;16.60;;
59093;SDS011;44880;52.814;18.270;2022-12-05T01:02:15;36.80;;;17.10;;
59093;SDS011;44880;52.814;18.270;2022-12-05T01:04:47;36.70;;;17.60;;
59093;SDS011;44880;52.814;18.270;2022-12-05T01:07:18;38.70;;;18.80;;
59093;SDS011;44880;52.814;18.270;2022-12-05T01:09:50;42.10;;;20.10;;
59093;SDS011;44880;52.814;18.270;2022-12-05T01:12:22;44.80;;;20.60;;
59093;SDS011;44880;52.814;18.270;2022-12-05T01:14:55;43.00;;;18.80;;
59093;SDS011;44880;52.814;18.270;2022-12-05T01:17:26;43.60;;;20.80;;
59093;SDS011;44880;52.814;18.270;2022-12-05T01:19:58;51.00;;;21.70;;
59093;SDS011;44880;52.814;18.270;2022-12-05T01:22:30;50.80;;;24.20;;
59093;SDS011;44880;52.814;18.270;2022-12-05T01:25:01;47.50;;;23.10;;
59093;SDS011;44880;52.814;18.270;2022-12-05T01:27:33;44.40;;;20.40;;
59093;SDS011;44880;52.814;18.270;2022-12-05T01:30:06;42.20;;;20.10;;
59093;SDS011;44880;52.814;18.270;2022-12-05T01:32:39;41.50;;;19.10;;
59093;SDS011;44880;52.814;18.270;2022-12-05T01:35:11;46.10;;;19.30;;
59093;SDS011;44880;52.814;18.270;2022-12-05T01:37:42;42.20;;;17.60;;
59093;SDS011;44880;52.814;18.270;2022-12-05T01:42:45;42.20;;;19.30;;
59093;SDS011;44880;52.814;18.270;2022-12-05T01:45:17;40.00;;;18.60;;
59093;SDS011;44880;52.814;18.270;2022-12-05T01:47:50;37.30;;;18.70;;
59093;SDS011;44880;52.814;18.270;2022-12-05T01:50:21;38.00;;;17.40;;
59093;SDS011;44880;52.814;18.270;2022-12-05T01:52:53;34.60;;;17.80;;
59093;SDS011;44880;52.814;18.270;2022-12-05T01:55:25;36.00;;;16.50;;
59093;SDS011;44880;52.814;18.270;2022-12-05T01:57:56;37.30;;;17.40;;
59093;SDS011;44880;52.814;18.270;2022-12-05T02:00:28;35.10;;;17.40;;
59093;SDS011;44880;52.814;18.270;2022-12-05T02:03:05;41.30;;;19.00;;
59093;SDS011;44880;52.814;18.270;2022-12-05T02:05:39;42.00;;;18.50;;
59093;SDS011;44880;52.814;18.270;2022-12-05T02:08:11;39.20;;;17.00;;
59093;SDS011;44880;52.814;18.270;2022-12-05T02:10:43;37.10;;;16.90;;
59093;SDS011;44880;52.814;18.270;2022-12-05T02:13:23;34.70;;;15.50;;
59093;SDS011;44880;52.814;18.270;2022-12-05T02:16:04;31.80;;;14.80;;
59093;SDS011;44880;52.814;18.270;2022-12-05T02:18:44;30.80;;;13.70;;
59093;SDS011;44880;52.814;18.270;2022-12-05T02:21:25;26.60;;;13.70;;
59093;SDS011;44880;52.814;18.270;2022-12-05T02:24:15;27.10;;;14.00;;
59093;SDS011;44880;52.814;18.270;2022-12-05T02:27:05;25.80;;;13.20;;
59093;SDS011;44880;52.814;18.270;2022-12-05T02:29:49;26.70;;;13.10;;
59093;SDS011;44880;52.814;18.270;2022-12-05T02:32:42;36.30;;;15.70;;
59093;SDS011;44880;52.814;18.270;2022-12-05T02:35:23;30.20;;;14.20;;
59093;SDS011;44880;52.814;18.270;2022-12-05T02:38:00;32.90;;;14.10;;
59093;SDS011;44880;52.814;18.270;2022-12-05T02:40:38;30.30;;;14.10;;
59093;SDS011;44880;52.814;18.270;2022-12-05T02:43:13;31.00;;;13.80;;
59093;SDS011;44880;52.814;18.270;2022-12-05T02:45:49;28.70;;;13.90;;
59093;SDS011;44880;52.814;18.270;2022-12-05T02:48:23;25.70;;;13.10;;
59093;SDS011;44880;52.814;18.270;2022-12-05T02:50:58;29.30;;;13.10;;
59093;SDS011;44880;52.814;18.270;2022-12-05T02:53:32;31.70;;;14.80;;
59093;SDS011;44880;52.814;18.270;2022-12-05T02:56:05;32.60;;;14.80;;
59093;SDS011;44880;52.814;18.270;2022-12-05T02:58:38;34.10;;;15.90;;
59093;SDS011;44880;52.814;18.270;2022-12-05T03:01:13;33.70;;;16.50;;
59093;SDS011;44880;52.814;18.270;2022-12-05T03:03:45;33.10;;;15.60;;
59093;SDS011;44880;52.814;18.270;2022-12-05T03:06:18;29.70;;;14.70;;
59093;SDS011;44880;52.814;18.270;2022-12-05T03:08:52;31.00;;;15.80;;
59093;SDS011;44880;52.814;18.270;2022-12-05T03:11:26;29.10;;;14.60;;
59093;SDS011;44880;52.814;18.270;2022-12-05T03:14:02;30.00;;;14.70;;
59093;SDS011;44880;52.814;18.270;2022-12-05T03:16:40;26.60;;;13.20;;
59093;SDS011;44880;52.814;18.270;2022-12-05T03:19:16;26.30;;;13.50;;
59093;SDS011;44880;52.814;18.270;2022-12-05T03:21:51;27.90;;;13.30;;
59093;SDS011;44880;52.814;18.270;2022-12-05T03:24:24;31.20;;;13.30;;
59093;SDS011;44880;52.814;18.270;2022-12-05T03:29:28;35.00;;;14.90;;
59093;SDS011;44880;52.814;18.270;2022-12-05T03:32:05;27.70;;;14.10;;
59093;SDS011;44880;52.814;18.270;2022-12-05T03:34:42;28.40;;;14.60;;
59093;SDS011;44880;52.814;18.270;2022-12-05T03:37:20;29.20;;;14.80;;
59093;SDS011;44880;52.814;18.270;2022-12-05T03:39:57;28.70;;;15.10;;
59093;SDS011;44880;52.814;18.270;2022-12-05T03:42:36;28.60;;;14.30;;
59093;SDS011;44880;52.814;18.270;2022-12-05T03:45:10;29.00;;;13.70;;
59093;SDS011;44880;52.814;18.270;2022-12-05T03:47:46;28.40;;;14.10;;
59093;SDS011;44880;52.814;18.270;2022-12-05T03:50:20;27.70;;;13.70;;
59093;SDS011;44880;52.814;18.270;2022-12-05T03:52:56;30.00;;;14.40;;
59093;SDS011;44880;52.814;18.270;2022-12-05T03:55:30;33.00;;;15.00;;
59093;SDS011;44880;52.814;18.270;2022-12-05T03:58:06;36.00;;;17.10;;
59093;SDS011;44880;52.814;18.270;2022-12-05T04:00:39;32.60;;;15.20;;
59093;SDS011;44880;52.814;18.270;2022-12-05T04:03:12;29.80;;;14.10;;
59093;SDS011;44880;52.814;18.270;2022-12-05T04:05:47;32.90;;;15.80;;
59093;SDS011;44880;52.814;18.270;2022-12-05T04:08:21;30.20;;;14.10;;
59093;SDS011;44880;52.814;18.270;2022-12-05T04:10:56;28.00;;;15.20;;
59093;SDS011;44880;52.814;18.270;2022-12-05T04:13:34;28.10;;;13.40;;
59093;SDS011;44880;52.814;18.270;2022-12-05T04:16:09;26.20;;;14.00;;
59093;SDS011;44880;52.814;18.270;2022-12-05T04:19:02;23.90;;;11.90;;
59093;SDS011;44880;52.814;18.270;2022-12-05T04:21:37;30.00;;;13.60;;
59093;SDS011;44880;52.814;18.270;2022-12-05T04:24:12;30.60;;;14.40;;
59093;SDS011;44880;52.814;18.270;2022-12-05T04:29:39;31.20;;;14.90;;
59093;SDS011;44880;52.814;18.270;2022-12-05T04:32:15;31.40;;;15.40;;
59093;SDS011;44880;52.814;18.270;2022-12-05T04:34:48;30.10;;;14.20;;
59093;SDS011;44880;52.814;18.270;2022-12-05T04:37:24;25.00;;;13.30;;
59093;SDS011;44880;52.814;18.270;2022-12-05T04:39:57;24.00;;;12.30;;
59093;SDS011;44880;52.814;18.270;2022-12-05T04:42:33;24.70;;;12.20;;
59093;SDS011;44880;52.814;18.270;2022-12-05T04:45:06;28.10;;;14.00;;
59093;SDS011;44880;52.814;18.270;2022-12-05T04:47:41;28.00;;;14.20;;
59093;SDS011;44880;52.814;18.270;2022-12-05T04:50:15;32.60;;;14.70;;
59093;SDS011;44880;52.814;18.270;2022-12-05T04:52:47;35.60;;;16.20;;
59093;SDS011;44880;52.814;18.270;2022-12-05T04:55:22;30.60;;;14.60;;
59093;SDS011;44880;52.814;18.270;2022-12-05T04:57:56;26.80;;;13.20;;
59093;SDS011;44880;52.814;18.270;2022-12-05T05:00:33;29.10;;;14.80;;
59093;SDS011;44880;52.814;18.270;2022-12-05T05:03:11;26.30;;;11.80;;
59093;SDS011;44880;52.814;18.270;2022-12-05T05:05:46;25.20;;;12.40;;
59093;SDS011;44880;52.814;18.270;2022-12-05T05:08:20;26.70;;;13.30;;
59093;SDS011;44880;52.814;18.270;2022-12-05T05:10:56;24.50;;;11.70;;
59093;SDS011;44880;52.814;18.270;2022-12-05T05:13:35;18.60;;;9.40;;
59093;SDS011;44880;52.814;18.270;2022-12-05T05:16:07;27.00;;;12.10;;
59093;SDS011;44880;52.814;18.270;2022-12-05T05:18:41;29.20;;;13.20;;
59093;SDS011;44880;52.814;18.270;2022-12-05T05:21:16;27.40;;;13.30;;
59093;SDS011;44880;52.814;18.270;2022-12-05T05:23:49;26.10;;;12.50;;
59093;SDS011;44880;52.814;18.270;2022-12-05T05:26:22;25.10;;;11.70;;
59093;SDS011;44880;52.814;18.270;2022-12-05T05:28:54;23.40;;;11.70;;
59093;SDS011;44880;52.814;18.270;2022-12-05T05:31:26;22.10;;;11.20;;
59093;SDS011;44880;52.814;18.270;2022-12-05T05:36:27;23.80;;;10.90;;
59093;SDS011;44880;52.814;18.270;2022-12-05T05:38:59;26.40;;;12.40;;
59093;SDS011;44880;52.814;18.270;2022-12-05T05:41:34;26.70;;;12.50;;
59093;SDS011;44880;52.814;18.270;2022-12-05T05:44:06;28.30;;;12.90;;
59093;SDS011;44880;52.814;18.270;2022-12-05T05:46:38;30.40;;;13.70;;
59093;SDS011;44880;52.814;18.270;2022-12-05T05:49:10;30.10;;;14.00;;
59093;SDS011;44880;52.814;18.270;2022-12-05T05:51:41;30.60;;;15.00;;
59093;SDS011;44880;52.814;18.270;2022-12-05T05:54:13;30.80;;;14.20;;
59093;SDS011;44880;52.814;18.270;2022-12-05T05:56:44;28.40;;;13.70;;
59093;SDS011;44880;52.814;18.270;2022-12-05T05:59:16;27.90;;;13.70;;
59093;SDS011;44880;52.814;18.270;2022-12-05T06:01:47;24.70;;;13.20;;
59093;SDS011;44880;52.814;18.270;2022-12-05T06:04:19;26.10;;;13.60;;
59093;SDS011;44880;52.814;18.270;2022-12-05T06:06:50;25.30;;;13.20;;
59093;SDS011;44880;52.814;18.270;2022-12-05T06:09:22;23.60;;;12.30;;
59093;SDS011;44880;52.814;18.270;2022-12-05T06:11:54;25.80;;;13.00;;
59093;SDS011;44880;52.814;18.270;2022-12-05T06:14:25;27.90;;;13.40;;
59093;SDS011;44880;52.814;18.270;2022-12-05T06:16:57;31.90;;;14.10;;
59093;SDS011;44880;52.814;18.270;2022-12-05T06:19:28;29.80;;;13.70;;
59093;SDS011;44880;52.814;18.270;2022-12-05T06:22:00;31.50;;;14.00;;
59093;SDS011;44880;52.814;18.270;2022-12-05T06:24:32;29.30;;;13.60;;
59093;SDS011;44880;52.814;18.270;2022-12-05T06:27:03;31.30;;;14.20;;
59093;SDS011;44880;52.814;18.270;2022-12-05T06:29:35;27.70;;;14.30;;
59093;SDS011;44880;52.814;18.270;2022-12-05T06:32:06;26.50;;;13.60;;
59093;SDS011;44880;52.814;18.270;2022-12-05T06:34:38;30.10;;;14.30;;
59093;SDS011;44880;52.814;18.270;2022-12-05T06:37:10;28.60;;;14.70;;
59093;SDS011;44880;52.814;18.270;2022-12-05T06:39:43;28.70;;;14.50;;
59093;SDS011;44880;52.814;18.270;2022-12-05T06:42:14;31.70;;;16.40;;
59093;SDS011;44880;52.814;18.270;2022-12-05T06:44:47;28.00;;;14.60;;
59093;SDS011;44880;52.814;18.270;2022-12-05T06:47:18;32.90;;;15.80;;
59093;SDS011;44880;52.814;18.270;2022-12-05T06:49:50;37.80;;;16.50;;
59093;SDS011;44880;52.814;18.270;2022-12-05T06:52:21;30.30;;;14.60;;
59093;SDS011;44880;52.814;18.270;2022-12-05T06:54:53;30.70;;;14.00;;
59093;SDS011;44880;52.814;18.270;2022-12-05T06:57:28;27.60;;;14.20;;
59093;SDS011;44880;52.814;18.270;2022-12-05T06:59:59;24.70;;;12.70;;
59093;SDS011;44880;52.814;18.270;2022-12-05T07:02:46;29.10;;;14.80;;
59093;SDS011;44880;52.814;18.270;2022-12-05T07:05:20;28.60;;;14.00;;
59093;SDS011;44880;52.814;18.270;2022-12-05T07:10:22;27.90;;;13.30;;
59093;SDS011;44880;52.814;18.270;2022-12-05T07:12:53;29.70;;;13.40;;
59093;SDS011;44880;52.814;18.270;2022-12-05T07:15:25;27.30;;;12.80;;
59093;SDS011;44880;52.814;18.270;2022-12-05T07:17:57;25.70;;;13.20;;
59093;SDS011;44880;52.814;18.270;2022-12-05T07:20:29;30.60;;;14.40;;
59093;SDS011;44880;52.814;18.270;2022-12-05T07:23:00;27.90;;;13.60;;
59093;SDS011;44880;52.814;18.270;2022-12-05T07:25:32;38.40;;;15.50;;
59093;SDS011;44880;52.814;18.270;2022-12-05T07:28:04;38.10;;;16.70;;
59093;SDS011;44880;52.814;18.270;2022-12-05T07:30:36;32.20;;;15.10;;
59093;SDS011;44880;52.814;18.270;2022-12-05T07:33:08;32.80;;;14.40;;
59093;SDS011;44880;52.814;18.270;2022-12-05T07:35:39;30.40;;;14.10;;
59093;SDS011;44880;52.814;18.270;2022-12-05T07:38:11;32.70;;;13.90;;
59093;SDS011;44880;52.814;18.270;2022-12-05T07:40:43;27.50;;;13.40;;
59093;SDS011;44880;52.814;18.270;2022-12-05T07:43:15;29.70;;;13.30;;
59093;SDS011;44880;52.814;18.270;2022-12-05T07:45:46;29.40;;;14.30;;
59093;SDS011;44880;52.814;18.270;2022-12-05T07:48:18;29.60;;;13.50;;
59093;SDS011;44880;52.814;18.270;2022-12-05T07:50:50;28.10;;;14.20;;
59093;SDS011;44880;52.814;18.270;2022-12-05T07:53:21;27.00;;;12.70;;
59093;SDS011;44880;52.814;18.270;2022-12-05T07:55:53;29.50;;;12.70;;
59093;SDS011;44880;52.814;18.270;2022-12-05T07:58:27;35.40;;;15.70;;
59093;SDS011;44880;52.814;18.270;2022-12-05T08:01:05;27.60;;;13.30;;
59093;SDS011;44880;52.814;18.270;2022-12-05T08:03:37;30.10;;;13.20;;
59093;SDS011;44880;52.814;18.270;2022-12-05T08:06:10;26.10;;;13.20;;
59093;SDS011;44880;52.814;18.270;2022-12-05T08:08:43;26.20;;;13.40;;
59093;SDS011;44880;52.814;18.270;2022-12-05T08:11:17;26.00;;;12.80;;
59093;SDS011;44880;52.814;18.270;2022-12-05T08:13:51;26.90;;;13.20;;
59093;SDS011;44880;52.814;18.270;2022-12-05T08:16:24;30.10;;;14.30;;
59093;SDS011;44880;52.814;18.270;2022-12-05T08:18:57;31.70;;;15.20;;
59093;SDS011;44880;52.814;18.270;2022-12-05T08:21:30;27.90;;;11.90;;
59093;SDS011;44880;52.814;18.270;2022-12-05T08:24:04;28.30;;;13.40;;
59093;SDS011;44880;52.814;18.270;2022-12-05T08:26:37;31.50;;;14.30;;
59093;SDS011;44880;52.814;18.270;2022-12-05T08:29:10;35.00;;;16.00;;
59093;SDS011;44880;52.814;18.270;2022-12-05T08:31:43;31.40;;;13.40;;
59093;SDS011;44880;52.814;18.270;2022-12-05T08:34:17;31.90;;;14.20;;
59093;SDS011;44880;52.814;18.270;2022-12-05T08:36:49;30.00;;;14.00;;
59093;SDS011;44880;52.814;18.270;2022-12-05T08:39:20;26.20;;;13.20;;
59093;SDS011;44880;52.814;18.270;2022-12-05T08:41:54;26.80;;;13.40;;
59093;SDS011;44880;52.814;18.270;2022-12-05T08:44:26;27.80;;;13.80;;
59093;SDS011;44880;52.814;18.270;2022-12-05T08:46:58;29.40;;;14.50;;
59093;SDS011;44880;52.814;18.270;2022-12-05T08:49:30;30.70;;;13.70;;
59093;SDS011;44880;52.814;18.270;2022-12-05T08:52:02;25.00;;;13.80;;
59093;SDS011;44880;52.814;18.270;2022-12-05T08:54:33;27.50;;;13.70;;
59093;SDS011;44880;52.814;18.270;2022-12-05T08:57:05;28.10;;;13.40;;
59093;SDS011;44880;52.814;18.270;2022-12-05T08:59:37;27.00;;;13.00;;
59093;SDS011;44880;52.814;18.270;2022-12-05T09:02:09;27.00;;;13.10;;
59093;SDS011;44880;52.814;18.270;2022-12-05T09:04:40;32.90;;;15.70;;
59093;SDS011;44880;52.814;18.270;2022-12-05T09:07:12;35.70;;;16.10;;
59093;SDS011;44880;52.814;18.270;2022-12-05T09:12:14;30.90;;;14.70;;
59093;SDS011;44880;52.814;18.270;2022-12-05T09:14:46;32.10;;;15.10;;
59093;SDS011;44880;52.814;18.270;2022-12-05T09:17:18;30.00;;;14.30;;
59093;SDS011;44880;52.814;18.270;2022-12-05T09:22:21;29.90;;;14.90;;
59093;SDS011;44880;52.814;18.270;2022-12-05T09:24:57;28.70;;;14.10;;
59093;SDS011;44880;52.814;18.270;2022-12-05T09:27:49;28.30;;;14.30;;
59093;SDS011;44880;52.814;18.270;2022-12-05T09:30:23;27.30;;;13.40;;
59093;SDS011;44880;52.814;18.270;2022-12-05T09:32:55;28.70;;;13.80;;
59093;SDS011;44880;52.814;18.270;2022-12-05T09:35:27;28.10;;;13.90;;
59093;SDS011;44880;52.814;18.270;2022-12-05T09:37:58;32.40;;;15.50;;
59093;SDS011;44880;52.814;18.270;2022-12-05T09:40:30;32.80;;;15.40;;
59093;SDS011;44880;52.814;18.270;2022-12-05T09:45:34;29.70;;;14.20;;
59093;SDS011;44880;52.814;18.270;2022-12-05T09:48:11;33.30;;;15.50;;
59093;SDS011;44880;52.814;18.270;2022-12-05T09:50:45;27.90;;;14.50;;
59093;SDS011;44880;52.814;18.270;2022-12-05T09:53:23;29.30;;;14.60;;
59093;SDS011;44880;52.814;18.270;2022-12-05T09:55:59;27.10;;;14.40;;
59093;SDS011;44880;52.814;18.270;2022-12-05T09:58:38;28.40;;;14.80;;
59093;SDS011;44880;52.814;18.270;2022-12-05T10:01:17;30.70;;;14.10;;
59093;SDS011;44880;52.814;18.270;2022-12-05T10:04:03;27.60;;;14.30;;
59093;SDS011;44880;52.814;18.270;2022-12-05T10:06:42;28.70;;;14.40;;
59093;SDS011;44880;52.814;18.270;2022-12-05T10:09:22;28.30;;;13.70;;
59093;SDS011;44880;52.814;18.270;2022-12-05T10:12:04;27.60;;;14.10;;
59093;SDS011;44880;52.814;18.270;2022-12-05T10:14:44;34.70;;;14.60;;
59093;SDS011;44880;52.814;18.270;2022-12-05T10:17:21;36.00;;;17.20;;
59093;SDS011;44880;52.814;18.270;2022-12-05T10:19:57;35.60;;;17.30;;
59093;SDS011;44880;52.814;18.270;2022-12-05T10:22:33;32.20;;;15.60;;
59093;SDS011;44880;52.814;18.270;2022-12-05T10:25:09;31.50;;;15.10;;
59093;SDS011;44880;52.814;18.270;2022-12-05T10:27:44;30.00;;;15.10;;
59093;SDS011;44880;52.814;18.270;2022-12-05T10:30:18;29.70;;;15.10;;
59093;SDS011;44880;52.814;18.270;2022-12-05T10:32:52;29.00;;;14.70;;
59093;SDS011;44880;52.814;18.270;2022-12-05T10:35:25;32.90;;;15.20;;
59093;SDS011;44880;52.814;18.270;2022-12-05T10:38:03;32.80;;;16.00;;
59093;SDS011;44880;52.814;18.270;2022-12-05T10:40:37;32.20;;;16.00;;
59093;SDS011;44880;52.814;18.270;2022-12-05T10:43:12;33.50;;;16.10;;
59093;SDS011;44880;52.814;18.270;2022-12-05T10:45:45;33.20;;;17.20;;
59093;SDS011;44880;52.814;18.270;2022-12-05T10:48:18;34.70;;;16.40;;
59093;SDS011;44880;52.814;18.270;2022-12-05T10:50:51;34.60;;;16.00;;
59093;SDS011;44880;52.814;18.270;2022-12-05T10:53:24;40.00;;;17.50;;
59093;SDS011;44880;52.814;18.270;2022-12-05T10:59:12;43.70;;;18.20;;
59093;SDS011;44880;52.814;18.270;2022-12-05T11:01:47;39.60;;;19.00;;
59093;SDS011;44880;52.814;18.270;2022-12-05T11:04:24;36.30;;;16.60;;
59093;SDS011;44880;52.814;18.270;2022-12-05T11:06:58;36.00;;;17.80;;
59093;SDS011;44880;52.814;18.270;2022-12-05T11:09:32;39.70;;;19.10;;
59093;SDS011;44880;52.814;18.270;2022-12-05T11:12:16;41.20;;;18.40;;
59093;SDS011;44880;52.814;18.270;2022-12-05T11:14:59;41.80;;;19.00;;
59093;SDS011;44880;52.814;18.270;2022-12-05T11:17:34;37.40;;;17.90;;
59093;SDS011;44880;52.814;18.270;2022-12-05T11:20:31;36.30;;;18.30;;
59093;SDS011;44880;52.814;18.270;2022-12-05T11:23:14;37.10;;;17.80;;
59093;SDS011;44880;52.814;18.270;2022-12-05T11:25:51;38.10;;;17.30;;
59093;SDS011;44880;52.814;18.270;2022-12-05T11:28:35;44.40;;;19.10;;
59093;SDS011;44880;52.814;18.270;2022-12-05T11:31:17;45.00;;;19.90;;
59093;SDS011;44880;52.814;18.270;2022-12-05T11:34:10;41.50;;;19.00;;
59093;SDS011;44880;52.814;18.270;2022-12-05T11:36:47;38.10;;;17.80;;
59093;SDS011;44880;52.814;18.270;2022-12-05T11:39:21;37.00;;;17.10;;
59093;SDS011;44880;52.814;18.270;2022-12-05T11:42:04;37.30;;;19.40;;
59093;SDS011;44880;52.814;18.270;2022-12-05T11:45:02;39.00;;;18.40;;
59093;SDS011;44880;52.814;18.270;2022-12-05T11:47:45;39.70;;;18.60;;
59093;SDS011;44880;52.814;18.270;2022-12-05T11:50:27;42.30;;;19.40;;
59093;SDS011;44880;52.814;18.270;2022-12-05T11:53:09;37.80;;;19.50;;
59093;SDS011;44880;52.814;18.270;2022-12-05T11:55:50;41.50;;;18.80;;
59093;SDS011;44880;52.814;18.270;2022-12-05T11:58:37;37.60;;;18.50;;
59093;SDS011;44880;52.814;18.270;2022-12-05T12:01:17;41.50;;;19.10;;
59093;SDS011;44880;52.814;18.270;2022-12-05T12:07:12;38.30;;;18.40;;
59093;SDS011;44880;52.814;18.270;2022-12-05T12:09:53;44.60;;;20.80;;
59093;SDS011;44880;52.814;18.270;2022-12-05T12:12:34;45.90;;;19.10;;
59093;SDS011;44880;52.814;18.270;2022-12-05T12:15:15;35.70;;;17.60;;
59093;SDS011;44880;52.814;18.270;2022-12-05T12:18:01;36.00;;;16.70;;
59093;SDS011;44880;52.814;18.270;2022-12-05T12:20:43;35.00;;;17.70;;
59093;SDS011;44880;52.814;18.270;2022-12-05T12:23:31;40.10;;;21.50;;
59093;SDS011;44880;52.814;18.270;2022-12-05T12:26:13;40.90;;;19.10;;
59093;SDS011;44880;52.814;18.270;2022-12-05T12:28:51;44.10;;;21.00;;
59093;SDS011;44880;52.814;18.270;2022-12-05T12:31:37;37.20;;;18.60;;
59093;SDS011;44880;52.814;18.270;2022-12-05T12:34:21;37.50;;;17.90;;
59093;SDS011;44880;52.814;18.270;2022-12-05T12:37:21;35.40;;;17.10;;
59093;SDS011;44880;52.814;18.270;2022-12-05T12:40:00;37.80;;;19.00;;
59093;SDS011;44880;52.814;18.270;2022-12-05T12:42:43;35.40;;;17.50;;
59093;SDS011;44880;52.814;18.270;2022-12-05T12:48:24;43.90;;;19.40;;
59093;SDS011;44880;52.814;18.270;2022-12-05T12:51:02;41.70;;;18.60;;
59093;SDS011;44880;52.814;18.270;2022-12-05T12:53:38;42.30;;;18.40;;
59093;SDS011;44880;52.814;18.270;2022-12-05T12:56:37;39.10;;;17.90;;
59093;SDS011;44880;52.814;18.270;2022-12-05T12:59:25;38.80;;;17.10;;
59093;SDS011;44880;52.814;18.270;2022-12-05T13:02:10;40.60;;;19.90;;
59093;SDS011;44880;52.814;18.270;2022-12-05T13:04:48;42.60;;;19.10;;
59093;SDS011;44880;52.814;18.270;2022-12-05T13:07:22;40.30;;;20.20;;
59093;SDS011;44880;52.814;18.270;2022-12-05T13:09:59;41.10;;;19.80;;
59093;SDS011;44880;52.814;18.270;2022-12-05T13:12:35;37.60;;;18.40;;
59093;SDS011;44880;52.814;18.270;2022-12-05T13:15:12;41.80;;;18.90;;
59093;SDS011;44880;52.814;18.270;2022-12-05T13:17:45;41.30;;;19.90;;
59093;SDS011;44880;52.814;18.270;2022-12-05T13:20:19;41.80;;;18.40;;
59093;SDS011;44880;52.814;18.270;2022-12-05T13:22:51;48.30;;;22.10;;
59093;SDS011;44880;52.814;18.270;2022-12-05T13:25:25;47.00;;;20.90;;
59093;SDS011;44880;52.814;18.270;2022-12-05T13:28:01;45.20;;;21.20;;
59093;SDS011;44880;52.814;18.270;2022-12-05T13:30:35;47.10;;;21.70;;
59093;SDS011;44880;52.814;18.270;2022-12-05T13:33:25;45.40;;;20.60;;
59093;SDS011;44880;52.814;18.270;2022-12-05T13:36:01;44.50;;;21.00;;
59093;SDS011;44880;52.814;18.270;2022-12-05T13:38:57;44.40;;;20.80;;
59093;SDS011;44880;52.814;18.270;2022-12-05T13:41:49;41.10;;;20.40;;
59093;SDS011;44880;52.814;18.270;2022-12-05T13:44:40;43.50;;;20.70;;
59093;SDS011;44880;52.814;18.270;2022-12-05T13:50:07;41.00;;;20.60;;
59093;SDS011;44880;52.814;18.270;2022-12-05T13:52:44;41.30;;;20.90;;
59093;SDS011;44880;52.814;18.270;2022-12-05T13:55:19;48.30;;;21.90;;
59093;SDS011;44880;52.814;18.270;2022-12-05T13:57:54;40.80;;;19.30;;
59093;SDS011;44880;52.814;18.270;2022-12-05T14:00:28;47.60;;;21.00;;
59093;SDS011;44880;52.814;18.270;2022-12-05T14:03:02;56.00;;;24.20;;
59093;SDS011;44880;52.814;18.270;2022-12-05T14:05:36;51.90;;;23.60;;
59093;SDS011;44880;52.814;18.270;2022-12-05T14:11:14;47.90;;;22.20;;
59093;SDS011;44880;52.814;18.270;2022-12-05T14:13:46;43.90;;;19.40;;
59093;SDS011;44880;52.814;18.270;2022-12-05T14:19:33;47.30;;;22.10;;
59093;SDS011;44880;52.814;18.270;2022-12-05T14:22:37;45.60;;;22.40;;
59093;SDS011;44880;52.814;18.270;2022-12-05T14:27:55;48.30;;;22.40;;
59093;SDS011;44880;52.814;18.270;2022-12-05T14:30:33;49.30;;;22.10;;
59093;SDS011;44880;52.814;18.270;2022-12-05T14:33:14;45.30;;;21.50;;
59093;SDS011;44880;52.814;18.270;2022-12-05T14:35:47;44.60;;;21.30;;
59093;SDS011;44880;52.814;18.270;2022-12-05T14:38:21;48.50;;;21.80;;
59093;SDS011;44880;52.814;18.270;2022-12-05T14:40:55;58.70;;;25.80;;
59093;SDS011;44880;52.814;18.270;2022-12-05T14:43:39;56.50;;;23.60;;
59093;SDS011;44880;52.814;18.270;2022-12-05T14:46:23;52.70;;;23.90;;
59093;SDS011;44880;52.814;18.270;2022-12-05T14:48:56;49.50;;;22.20;;
59093;SDS011;44880;52.814;18.270;2022-12-05T14:54:24;45.30;;;22.30;;
59093;SDS011;44880;52.814;18.270;2022-12-05T14:57:03;49.10;;;22.40;;
59093;SDS011;44880;52.814;18.270;2022-12-05T14:59:47;48.20;;;22.50;;
59093;SDS011;44880;52.814;18.270;2022-12-05T15:02:24;45.10;;;22.60;;
59093;SDS011;44880;52.814;18.270;2022-12-05T15:05:04;46.70;;;22.80;;
59093;SDS011;44880;52.814;18.270;2022-12-05T15:07:47;49.90;;;22.20;;
59093;SDS011;44880;52.814;18.270;2022-12-05T15:10:23;52.20;;;22.20;;
59093;SDS011;44880;52.814;18.270;2022-12-05T15:13:04;44.00;;;21.60;;
59093;SDS011;44880;52.814;18.270;2022-12-05T15:15:51;47.60;;;22.30;;
59093;SDS011;44880;52.814;18.270;2022-12-05T15:18:29;49.20;;;23.00;;
59093;SDS011;44880;52.814;18.270;2022-12-05T15:21:09;48.50;;;22.20;;
59093;SDS011;44880;52.814;18.270;2022-12-05T15:23:54;54.20;;;23.70;;
59093;SDS011;44880;52.814;18.270;2022-12-05T15:26:36;60.10;;;25.70;;
59093;SDS011;44880;52.814;18.270;2022-12-05T15:29:13;54.00;;;25.20;;
59093;SDS011;44880;52.814;18.270;2022-12-05T15:31:57;54.70;;;23.50;;
59093;SDS011;44880;52.814;18.270;2022-12-05T15:34:35;51.00;;;24.20;;
59093;SDS011;44880;52.814;18.270;2022-12-05T15:37:13;47.30;;;22.40;;
59093;SDS011;44880;52.814;18.270;2022-12-05T15:39:52;45.40;;;21.30;;
59093;SDS011;44880;52.814;18.270;2022-12-05T15:42:28;45.80;;;22.50;;
59093;SDS011;44880;52.814;18.270;2022-12-05T15:45:19;47.60;;;24.10;;
59093;SDS011;44880;52.814;18.270;2022-12-05T15:48:09;45.20;;;21.40;;